createdAt,value
2022-11-29T00:01:11.948Z,68.30
2022-11-29T00:03:38.868Z,73.43
2022-11-29T00:06:09.303Z,73.97
2022-11-29T00:08:37.453Z,76.13
2022-11-29T00:11:09.747Z,80.13
2022-11-29T00:13:39.374Z,91.80
2022-11-29T00:16:09.016Z,83.40
2022-11-29T00:18:37.855Z,70.93
2022-11-29T00:21:08.720Z,64.28
2022-11-29T00:23:35.971Z,134.85
2022-11-29T00:26:06.974Z,98.10
2022-11-29T00:28:35.596Z,90.20
2022-11-29T00:31:17.983Z,78.22
2022-11-29T00:33:45.094Z,102.30
2022-11-29T00:36:12.604Z,55.58
2022-11-29T00:38:39.751Z,52.70
2022-11-29T00:41:06.736Z,96.07
2022-11-29T00:43:33.965Z,69.03
2022-11-29T00:46:00.959Z,68.63
2022-11-29T00:48:27.851Z,70.82
2022-11-29T00:50:55.003Z,63.92
2022-11-29T00:53:21.777Z,64.05
2022-11-29T00:55:49.994Z,61.42
2022-11-29T01:00:43.745Z,90.85
2022-11-29T01:03:10.297Z,88.28
2022-11-29T01:05:37.054Z,104.57
2022-11-29T01:08:04.061Z,78.07
2022-11-29T01:10:30.700Z,61.88
2022-11-29T01:12:57.302Z,134.48
2022-11-29T01:15:24.148Z,110.60
2022-11-29T01:17:51.006Z,61.28
2022-11-29T01:20:18.636Z,320.42
2022-11-29T01:22:46.231Z,186.60
2022-11-29T01:25:15.076Z,61.80
2022-11-29T01:27:42.536Z,67.13
2022-11-29T01:30:10.480Z,67.73
2022-11-29T01:32:38.624Z,67.88
2022-11-29T01:35:06.206Z,74.05
2022-11-29T01:37:33.046Z,64.43
2022-11-29T01:40:00.911Z,73.43
2022-11-29T01:42:27.697Z,59.28
2022-11-29T01:45:23.407Z,57.50
2022-11-29T01:47:52.873Z,58.90
2022-11-29T01:50:20.227Z,60.45
2022-11-29T01:52:49.282Z,50.53
2022-11-29T01:55:16.698Z,47.42
2022-11-29T01:57:44.162Z,53.08
2022-11-29T02:00:17.552Z,50.72
2022-11-29T02:03:10.760Z,52.63
2022-11-29T02:05:40.941Z,47.08
2022-11-29T02:08:09.739Z,46.35
2022-11-29T02:11:06.845Z,54.00
2022-11-29T02:14:01.503Z,45.17
2022-11-29T02:16:47.785Z,57.05
2022-11-29T02:19:40.391Z,49.53
2022-11-29T02:22:20.309Z,50.05
2022-11-29T02:25:15.864Z,51.47
2022-11-29T02:27:58.795Z,55.72
2022-11-29T02:30:35.205Z,55.53
2022-11-29T02:33:48.252Z,46.45
2022-11-29T02:36:32.962Z,51.63
2022-11-29T02:38:59.466Z,48.58
2022-11-29T02:42:00.125Z,56.13
2022-11-29T02:44:48.517Z,45.45
2022-11-29T02:47:55.781Z,51.58
2022-11-29T02:50:43.083Z,46.95
2022-11-29T02:53:29.927Z,49.03
2022-11-29T02:56:15.612Z,49.15
2022-11-29T02:58:51.140Z,46.85
2022-11-29T03:01:39.448Z,41.55
2022-11-29T03:04:24.196Z,49.42
2022-11-29T03:07:03.524Z,47.47
2022-11-29T03:09:37.643Z,48.08
2022-11-29T03:12:19.771Z,43.65
2022-11-29T03:15:08.170Z,50.47
2022-11-29T03:17:52.473Z,37.97
2022-11-29T03:20:49.979Z,45.63
2022-11-29T03:23:25.967Z,44.95
2022-11-29T03:26:02.645Z,51.92
2022-11-29T03:28:32.709Z,55.72
2022-11-29T03:31:43.039Z,71.40
2022-11-29T03:34:45.030Z,83.55
2022-11-29T03:37:19.029Z,68.15
2022-11-29T03:40:03.939Z,82.97
2022-11-29T03:42:36.645Z,70.22
2022-11-29T03:45:14.353Z,62.60
2022-11-29T03:48:15.044Z,94.82
2022-11-29T03:50:55.216Z,77.35
2022-11-29T03:53:45.474Z,56.47
2022-11-29T03:56:34.101Z,61.42
2022-11-29T03:59:18.999Z,73.47
2022-11-29T04:01:54.621Z,36.50
2022-11-29T04:05:09.462Z,78.22
2022-11-29T04:07:44.971Z,58.03
2022-11-29T04:10:25.789Z,91.20
2022-11-29T04:13:13.848Z,89.95
2022-11-29T04:15:46.883Z,56.30
2022-11-29T04:18:28.744Z,114.30
2022-11-29T04:21:38.622Z,59.15
2022-11-29T04:24:54.587Z,109.22
2022-11-29T04:27:57.041Z,61.15
2022-11-29T04:30:26.085Z,62.90
2022-11-29T04:33:13.697Z,43.50
2022-11-29T04:36:10.669Z,38.30
2022-11-29T04:38:40.384Z,115.03
2022-11-29T04:41:25.458Z,45.00
2022-11-29T04:43:58.309Z,46.00
2022-11-29T04:46:44.510Z,40.60
2022-11-29T04:49:50.416Z,73.35
2022-11-29T04:52:34.280Z,42.20
2022-11-29T04:55:26.192Z,39.17
2022-11-29T04:58:26.030Z,43.10
2022-11-29T05:01:09.769Z,61.67
2022-11-29T05:03:41.645Z,50.75
2022-11-29T05:06:26.055Z,53.00
2022-11-29T05:09:09.173Z,39.95
2022-11-29T05:11:43.693Z,37.50
2022-11-29T05:15:00.821Z,44.88
2022-11-29T05:17:38.680Z,64.82
2022-11-29T05:20:33.416Z,43.63
2022-11-29T05:23:16.356Z,58.25
2022-11-29T05:26:02.954Z,26.92
2022-11-29T05:28:40.906Z,35.67
2022-11-29T05:31:29.020Z,45.47
2022-11-29T05:34:34.525Z,28.77
2022-11-29T05:37:18.053Z,54.53
2022-11-29T05:40:06.456Z,37.58
2022-11-29T05:42:54.000Z,52.00
2022-11-29T05:45:25.394Z,62.65
2022-11-29T05:48:03.529Z,56.63
2022-11-29T05:53:18.332Z,32.85
2022-11-29T05:56:05.073Z,41.88
2022-11-29T05:58:46.586Z,35.60
2022-11-29T06:01:36.830Z,50.78
2022-11-29T06:04:46.550Z,37.00
2022-11-29T06:07:21.238Z,53.45
2022-11-29T06:10:11.508Z,79.47
2022-11-29T06:12:40.922Z,32.10
2022-11-29T06:15:41.182Z,33.58
2022-11-29T06:18:40.020Z,33.53
2022-11-29T06:21:39.208Z,51.22
2022-11-29T06:24:36.770Z,35.63
2022-11-29T06:27:09.606Z,28.70
2022-11-29T06:29:58.365Z,22.85
2022-11-29T06:32:43.566Z,24.90
2022-11-29T06:35:35.098Z,29.08
2022-11-29T06:38:20.787Z,38.35
2022-11-29T06:40:47.716Z,42.00
2022-11-29T06:43:15.114Z,24.58
2022-11-29T06:45:49.456Z,29.77
2022-11-29T06:48:23.766Z,27.98
2022-11-29T06:50:56.676Z,20.20
2022-11-29T06:53:35.618Z,32.15
2022-11-29T06:56:51.537Z,36.80
2022-11-29T06:59:49.104Z,31.83
2022-11-29T07:02:37.961Z,28.50
2022-11-29T07:05:29.039Z,31.13
2022-11-29T07:07:58.767Z,25.48
2022-11-29T07:10:26.814Z,35.67
2022-11-29T07:12:55.734Z,32.42
2022-11-29T07:15:23.372Z,24.13
2022-11-29T07:18:09.099Z,25.60
2022-11-29T07:21:13.600Z,30.08
2022-11-29T07:24:08.938Z,29.13
2022-11-29T07:26:59.283Z,29.48
2022-11-29T07:29:51.248Z,21.42
2022-11-29T07:32:34.444Z,32.97
2022-11-29T07:35:13.304Z,31.52
2022-11-29T07:37:53.663Z,38.38
2022-11-29T07:40:38.408Z,35.85
2022-11-29T07:43:35.240Z,23.48
2022-11-29T07:46:03.208Z,24.73
2022-11-29T07:48:30.175Z,21.95
2022-11-29T07:50:57.078Z,22.27
2022-11-29T07:53:27.390Z,23.17
2022-11-29T07:55:54.132Z,24.00
2022-11-29T07:58:26.319Z,17.95
2022-11-29T08:00:53.471Z,23.15
2022-11-29T08:03:20.992Z,21.45
2022-11-29T08:05:48.490Z,29.88
2022-11-29T08:08:15.538Z,27.80
2022-11-29T08:10:44.994Z,24.40
2022-11-29T08:13:11.899Z,25.67
2022-11-29T08:15:45.200Z,22.23
2022-11-29T08:18:12.015Z,29.10
2022-11-29T08:20:39.637Z,32.75
2022-11-29T08:23:06.288Z,36.65
2022-11-29T08:25:33.191Z,28.60
2022-11-29T08:28:01.160Z,23.70
2022-11-29T08:30:27.875Z,22.90
2022-11-29T08:32:54.562Z,29.35
2022-11-29T08:35:23.126Z,24.25
2022-11-29T08:37:53.457Z,27.63
2022-11-29T08:40:23.432Z,35.45
2022-11-29T08:42:50.896Z,32.63
2022-11-29T08:45:18.124Z,30.03
2022-11-29T08:47:45.200Z,36.45
2022-11-29T08:50:14.576Z,29.95
2022-11-29T08:53:07.452Z,27.42
2022-11-29T08:55:40.110Z,23.20
2022-11-29T08:58:08.797Z,31.58
2022-11-29T09:00:35.839Z,34.55
2022-11-29T09:03:25.461Z,34.08
2022-11-29T09:05:52.909Z,46.40
2022-11-29T09:08:19.985Z,25.87
2022-11-29T09:10:47.579Z,32.85
2022-11-29T09:13:14.180Z,34.17
2022-11-29T09:15:42.298Z,19.75
2022-11-29T09:18:09.401Z,22.45
2022-11-29T09:20:36.565Z,23.77
2022-11-29T09:23:03.378Z,18.48
2022-11-29T09:25:32.174Z,22.73
2022-11-29T09:28:02.341Z,18.90
2022-11-29T09:30:32.832Z,20.77
2022-11-29T09:33:00.809Z,21.92
2022-11-29T09:35:28.513Z,18.00
2022-11-29T09:37:55.576Z,16.10
2022-11-29T09:40:30.895Z,13.73
2022-11-29T09:43:02.788Z,15.80
2022-11-29T09:45:36.721Z,16.90
2022-11-29T09:48:28.695Z,15.13
2022-11-29T09:51:08.681Z,23.45
2022-11-29T09:53:49.450Z,16.92
2022-11-29T09:56:28.118Z,25.15
2022-11-29T09:59:04.835Z,32.10
2022-11-29T10:01:39.781Z,22.38
2022-11-29T10:04:14.999Z,22.23
2022-11-29T10:07:05.727Z,19.23
2022-11-29T10:09:38.031Z,20.73
2022-11-29T10:12:17.409Z,24.98
2022-11-29T10:15:03.440Z,22.67
2022-11-29T10:17:46.415Z,23.58
2022-11-29T10:20:19.585Z,46.97
2022-11-29T10:23:02.357Z,31.50
2022-11-29T10:25:36.063Z,43.38
2022-11-29T10:28:05.189Z,29.92
2022-11-29T10:30:35.648Z,28.05
2022-11-29T10:33:02.961Z,25.63
2022-11-29T10:35:29.673Z,25.63
2022-11-29T10:38:29.874Z,24.08
2022-11-29T10:40:51.135Z,22.90
2022-11-29T10:43:18.338Z,19.88
2022-11-29T10:45:50.647Z,30.20
2022-11-29T10:48:23.104Z,21.02
2022-11-29T10:50:52.929Z,20.33
2022-11-29T10:53:36.229Z,24.08
2022-11-29T10:56:14.866Z,25.08
2022-11-29T10:58:55.548Z,20.00
2022-11-29T11:01:22.605Z,19.23
2022-11-29T11:03:57.299Z,17.13
2022-11-29T11:06:43.165Z,20.23
2022-11-29T11:09:22.075Z,19.05
2022-11-29T11:11:53.933Z,19.33
2022-11-29T11:14:34.563Z,21.17
2022-11-29T11:17:32.649Z,18.05
2022-11-29T11:20:19.687Z,20.10
2022-11-29T11:22:58.033Z,16.30
2022-11-29T11:25:28.737Z,15.00
2022-11-29T11:27:56.608Z,20.90
2022-11-29T11:30:29.170Z,23.67
2022-11-29T11:33:20.158Z,16.42
2022-11-29T11:36:11.959Z,19.92
2022-11-29T11:38:59.827Z,15.82
2022-11-29T11:44:49.628Z,20.65
2022-11-29T11:47:30.027Z,20.90
2022-11-29T11:50:02.763Z,21.40
2022-11-29T11:52:40.205Z,15.90
2022-11-29T11:55:29.420Z,19.58
2022-11-29T11:58:10.174Z,19.95
2022-11-29T12:01:04.331Z,35.13
2022-11-29T12:03:53.461Z,22.60
2022-11-29T12:06:41.969Z,25.95
2022-11-29T12:09:08.530Z,17.25
2022-11-29T12:11:49.669Z,18.85
2022-11-29T12:14:40.610Z,25.13
2022-11-29T12:17:27.011Z,24.70
2022-11-29T12:20:05.586Z,19.58
2022-11-29T12:22:42.671Z,21.35
2022-11-29T12:25:20.526Z,19.30
2022-11-29T12:27:49.658Z,20.23
2022-11-29T12:30:20.449Z,21.77
2022-11-29T12:33:09.812Z,26.52
2022-11-29T12:35:50.970Z,17.02
2022-11-29T12:38:26.703Z,21.10
2022-11-29T12:41:06.708Z,20.88
2022-11-29T12:44:05.346Z,18.05
2022-11-29T12:46:33.225Z,19.17
2022-11-29T12:49:36.251Z,23.83
2022-11-29T12:52:41.279Z,33.72
2022-11-29T12:55:23.710Z,28.70
2022-11-29T12:58:15.431Z,41.78
2022-11-29T13:00:54.342Z,24.88
2022-11-29T13:03:28.804Z,53.55
2022-11-29T13:05:55.625Z,48.60
2022-11-29T13:08:32.656Z,58.08
2022-11-29T13:11:11.597Z,38.53
2022-11-29T13:13:49.907Z,19.25
2022-11-29T13:16:27.686Z,23.73
2022-11-29T13:19:04.128Z,21.02
2022-11-29T13:21:42.803Z,21.02
2022-11-29T13:24:28.573Z,17.77
2022-11-29T13:26:58.689Z,26.92
2022-11-29T13:29:26.690Z,27.42
2022-11-29T13:31:53.446Z,23.55
2022-11-29T13:34:24.136Z,20.98
2022-11-29T13:37:04.893Z,20.33
2022-11-29T13:39:51.543Z,21.25
2022-11-29T13:42:33.257Z,31.83
2022-11-29T13:45:22.949Z,14.98
2022-11-29T13:47:54.821Z,14.75
2022-11-29T13:50:44.334Z,18.08
2022-11-29T13:53:20.333Z,16.25
2022-11-29T13:55:50.165Z,14.63
2022-11-29T13:58:39.253Z,15.52
2022-11-29T14:01:11.555Z,20.35
2022-11-29T14:03:41.111Z,17.25
2022-11-29T14:06:12.788Z,21.83
2022-11-29T14:09:20.390Z,17.40
2022-11-29T14:11:50.404Z,19.67
2022-11-29T14:14:17.207Z,14.20
2022-11-29T14:16:46.331Z,22.52
2022-11-29T14:19:34.560Z,16.70
2022-11-29T14:22:06.997Z,16.70
2022-11-29T14:24:36.536Z,17.80
2022-11-29T14:27:05.972Z,18.98
2022-11-29T14:29:48.028Z,14.63
2022-11-29T14:32:46.201Z,17.38
2022-11-29T14:35:22.151Z,15.98
2022-11-29T14:38:13.543Z,14.45
2022-11-29T14:40:40.037Z,20.42
2022-11-29T14:43:22.759Z,13.25
2022-11-29T14:46:12.574Z,20.88
2022-11-29T14:48:41.843Z,11.48
2022-11-29T14:51:30.118Z,18.55
2022-11-29T14:54:16.748Z,18.27
2022-11-29T14:56:45.851Z,19.10
2022-11-29T14:59:40.650Z,12.50
2022-11-29T15:02:25.567Z,21.20
2022-11-29T15:04:55.637Z,22.38
2022-11-29T15:07:30.389Z,17.77
2022-11-29T15:10:01.531Z,23.95
2022-11-29T15:12:34.058Z,25.35
2022-11-29T15:15:30.479Z,25.30
2022-11-29T15:18:23.143Z,24.70
2022-11-29T15:21:17.764Z,24.08
2022-11-29T15:23:44.334Z,16.35
2022-11-29T15:26:19.886Z,26.40
2022-11-29T15:28:47.346Z,26.23
2022-11-29T15:31:19.137Z,34.25
2022-11-29T15:33:48.115Z,31.38
2022-11-29T15:36:19.192Z,25.58
2022-11-29T15:38:50.785Z,21.77
2022-11-29T15:41:33.980Z,21.13
2022-11-29T15:44:03.033Z,84.43
2022-11-29T15:46:32.439Z,53.15
2022-11-29T15:49:21.281Z,40.53
2022-11-29T15:51:54.987Z,29.73
2022-11-29T15:54:43.724Z,30.80
2022-11-29T15:57:39.741Z,24.70
2022-11-29T16:00:11.437Z,15.75
2022-11-29T16:02:57.863Z,18.25
2022-11-29T16:05:37.226Z,25.42
2022-11-29T16:08:14.185Z,19.50
2022-11-29T16:10:49.321Z,43.90
2022-11-29T16:13:28.363Z,30.52
2022-11-29T16:16:06.340Z,26.60
2022-11-29T16:18:33.972Z,23.48
2022-11-29T16:21:04.801Z,26.55
2022-11-29T16:23:41.376Z,22.15
2022-11-29T16:26:19.182Z,20.65
2022-11-29T16:28:49.217Z,24.30
2022-11-29T16:31:30.669Z,25.08
2022-11-29T16:33:57.824Z,24.15
2022-11-29T16:36:29.505Z,15.35
2022-11-29T16:39:04.963Z,22.63
2022-11-29T16:41:37.718Z,23.85
2022-11-29T16:44:06.553Z,18.70
2022-11-29T16:46:39.006Z,23.20
2022-11-29T16:49:33.823Z,18.88
2022-11-29T16:52:03.528Z,18.30
2022-11-29T16:54:34.289Z,21.90
2022-11-29T16:57:06.375Z,19.80
2022-11-29T16:59:33.098Z,20.30
2022-11-29T17:02:02.414Z,17.40
2022-11-29T17:04:29.188Z,19.67
2022-11-29T17:06:56.973Z,25.50
2022-11-29T17:09:29.856Z,23.73
2022-11-29T17:11:59.796Z,29.40
2022-11-29T17:14:27.454Z,26.92
2022-11-29T17:16:56.476Z,33.33
2022-11-29T17:19:23.999Z,32.35
2022-11-29T17:21:52.179Z,32.58
2022-11-29T17:24:21.101Z,26.63
2022-11-29T17:26:47.721Z,29.55
2022-11-29T17:29:16.392Z,29.35
2022-11-29T17:31:45.000Z,24.42
2022-11-29T17:34:12.060Z,21.90
2022-11-29T17:36:39.492Z,24.58
2022-11-29T17:39:06.617Z,17.40
2022-11-29T17:41:34.076Z,22.30
2022-11-29T17:44:03.591Z,22.13
2022-11-29T17:46:36.200Z,18.08
2022-11-29T17:49:06.425Z,20.48
2022-11-29T17:54:21.323Z,24.60
2022-11-29T17:56:48.158Z,17.27
2022-11-29T17:59:15.060Z,29.25
2022-11-29T18:01:42.153Z,24.23
2022-11-29T18:04:09.589Z,16.38
2022-11-29T18:06:39.023Z,17.63
2022-11-29T18:09:08.545Z,19.08
2022-11-29T18:11:47.387Z,19.10
2022-11-29T18:14:23.792Z,17.75
2022-11-29T18:16:54.059Z,17.17
2022-11-29T18:19:22.257Z,21.25
2022-11-29T18:21:50.358Z,16.23
2022-11-29T18:24:17.976Z,16.90
2022-11-29T18:26:44.702Z,26.83
2022-11-29T18:29:11.820Z,18.63
2022-11-29T18:31:41.644Z,19.10
2022-11-29T18:34:10.182Z,17.15
2022-11-29T18:36:45.833Z,20.52
2022-11-29T18:39:14.988Z,16.65
2022-11-29T18:41:44.166Z,18.92
2022-11-29T18:44:14.247Z,28.77
2022-11-29T18:46:43.643Z,19.25
2022-11-29T18:49:13.384Z,18.73
2022-11-29T18:51:43.033Z,28.50
2022-11-29T18:54:10.222Z,14.93
2022-11-29T18:56:39.114Z,19.60
2022-11-29T18:59:11.724Z,15.23
2022-11-29T19:01:43.280Z,13.63
2022-11-29T19:04:15.891Z,24.88
2022-11-29T19:06:43.583Z,17.35
2022-11-29T19:09:20.992Z,19.33
2022-11-29T19:11:50.653Z,15.88
2022-11-29T19:14:18.067Z,16.00
2022-11-29T19:16:46.180Z,24.47
2022-11-29T19:19:15.547Z,12.73
2022-11-29T19:21:42.635Z,16.20
2022-11-29T19:24:14.658Z,15.80
2022-11-29T19:26:46.708Z,12.68
2022-11-29T19:29:14.507Z,11.77
2022-11-29T19:31:42.008Z,13.48
2022-11-29T19:34:12.115Z,11.57
2022-11-29T19:36:46.126Z,14.48
2022-11-29T19:39:17.132Z,11.45
2022-11-29T19:41:46.904Z,22.52
2022-11-29T19:44:14.150Z,13.95
2022-11-29T19:46:44.227Z,11.80
2022-11-29T19:49:11.066Z,15.60
2022-11-29T19:51:38.155Z,22.85
2022-11-29T19:54:06.877Z,23.27
2022-11-29T19:56:33.793Z,18.23
2022-11-29T19:59:00.970Z,18.73
2022-11-29T20:01:37.862Z,18.38
2022-11-29T20:04:06.145Z,31.60
2022-11-29T20:06:32.968Z,24.13
2022-11-29T20:08:59.965Z,16.27
2022-11-29T20:11:27.509Z,21.23
2022-11-29T20:14:01.291Z,21.05
2022-11-29T20:16:31.660Z,16.00
2022-11-29T20:18:59.176Z,19.33
2022-11-29T20:21:28.974Z,14.45
2022-11-29T20:23:58.214Z,14.23
2022-11-29T20:26:25.845Z,11.50
2022-11-29T20:28:53.271Z,11.60
2022-11-29T20:31:23.198Z,10.85
2022-11-29T20:33:54.130Z,11.60
2022-11-29T20:36:30.693Z,9.45
2022-11-29T20:39:15.729Z,12.40
2022-11-29T20:42:21.822Z,17.58
2022-11-29T20:45:00.110Z,8.43
2022-11-29T20:47:35.401Z,8.05
2022-11-29T20:50:03.846Z,9.90
2022-11-29T20:52:42.909Z,11.35
2022-11-29T20:55:09.966Z,12.60
2022-11-29T20:57:39.855Z,11.85
2022-11-29T21:00:08.740Z,11.73
2022-11-29T21:02:35.528Z,13.43
2022-11-29T21:05:02.117Z,16.83
2022-11-29T21:07:29.582Z,22.83
2022-11-29T21:10:00.971Z,13.70
2022-11-29T21:12:29.417Z,10.00
2022-11-29T21:14:56.337Z,18.85
2022-11-29T21:17:23.170Z,11.73
2022-11-29T21:19:50.129Z,11.20
2022-11-29T21:22:33.068Z,10.35
2022-11-29T21:25:15.507Z,9.18
2022-11-29T21:27:42.286Z,12.20
2022-11-29T21:30:20.670Z,10.15
2022-11-29T21:32:48.010Z,12.13
2022-11-29T21:35:15.559Z,8.97
2022-11-29T21:37:43.190Z,12.32
2022-11-29T21:40:11.071Z,12.05
2022-11-29T21:42:38.153Z,8.65
2022-11-29T21:45:09.286Z,15.07
2022-11-29T21:47:40.744Z,13.07
2022-11-29T21:50:07.809Z,16.27
2022-11-29T21:52:34.362Z,23.50
2022-11-29T21:55:00.867Z,11.45
2022-11-29T21:57:27.861Z,9.52
2022-11-29T21:59:55.227Z,8.27
2022-11-29T22:02:22.188Z,10.87
2022-11-29T22:04:49.116Z,15.02
2022-11-29T22:07:16.516Z,9.25
2022-11-29T22:09:43.822Z,10.38
2022-11-29T22:12:32.399Z,10.23
2022-11-29T22:14:57.321Z,12.23
2022-11-29T22:17:26.443Z,11.68
2022-11-29T22:19:55.310Z,10.13
2022-11-29T22:22:22.153Z,15.23
2022-11-29T22:24:49.168Z,11.10
2022-11-29T22:27:18.497Z,12.32
2022-11-29T22:29:45.733Z,10.10
2022-11-29T22:32:12.773Z,10.98
2022-11-29T22:34:40.129Z,11.55
2022-11-29T22:37:07.029Z,12.70
2022-11-29T22:39:34.307Z,10.70
2022-11-29T22:42:01.353Z,15.05
2022-11-29T22:44:27.871Z,14.95
2022-11-29T22:46:54.861Z,13.48
2022-11-29T22:49:24.508Z,19.02
2022-11-29T22:51:52.511Z,12.73
2022-11-29T22:54:20.575Z,17.70
2022-11-29T22:56:47.730Z,10.95
2022-11-29T22:59:14.692Z,13.40
2022-11-29T23:01:44.998Z,15.32
2022-11-29T23:04:13.184Z,13.00
2022-11-29T23:09:16.246Z,12.88
2022-11-29T23:11:45.617Z,13.82
2022-11-29T23:14:13.276Z,15.55
2022-11-29T23:16:40.315Z,13.43
2022-11-29T23:19:06.989Z,17.35
2022-11-29T23:21:36.661Z,14.30
2022-11-29T23:24:04.008Z,13.10
2022-11-29T23:26:39.591Z,13.87
2022-11-29T23:29:11.397Z,18.83
2022-11-29T23:31:38.077Z,13.05
2022-11-29T23:34:05.030Z,17.13
2022-11-29T23:36:32.052Z,14.93
2022-11-29T23:38:58.824Z,15.13
2022-11-29T23:41:25.478Z,15.32
2022-11-29T23:43:52.258Z,14.73
2022-11-29T23:46:21.886Z,17.23
2022-11-29T23:48:49.338Z,15.32
2022-11-29T23:51:18.854Z,16.57
2022-11-29T23:53:46.792Z,14.32
2022-11-29T23:56:17.871Z,15.20
2022-11-29T23:58:45.097Z,15.32
